createdAt,value
2023-01-03T00:01:29.189Z,1.30
2023-01-03T00:03:58.801Z,1.30
2023-01-03T00:06:36.052Z,1.60
2023-01-03T00:09:10.470Z,1.50
2023-01-03T00:11:56.384Z,1.40
2023-01-03T00:14:26.096Z,1.30
2023-01-03T00:16:58.926Z,2.30
2023-01-03T00:19:29.381Z,1.90
2023-01-03T00:21:55.922Z,1.53
2023-01-03T00:24:30.446Z,1.53
2023-01-03T00:27:01.154Z,1.00
2023-01-03T00:29:27.348Z,1.30
2023-01-03T00:31:53.517Z,1.83
2023-01-03T00:34:23.872Z,1.87
2023-01-03T00:36:52.818Z,1.00
2023-01-03T00:39:18.915Z,1.00
2023-01-03T00:41:45.028Z,1.87
2023-01-03T00:44:18.989Z,1.10
2023-01-03T00:46:45.450Z,1.00
2023-01-03T00:49:11.715Z,2.80
2023-01-03T00:51:39.771Z,1.30
2023-01-03T00:54:15.290Z,1.20
2023-01-03T00:56:43.350Z,1.10
2023-01-03T00:59:10.269Z,2.50
2023-01-03T01:01:46.205Z,1.20
2023-01-03T01:04:21.539Z,2.10
2023-01-03T01:06:50.582Z,1.00
2023-01-03T01:09:21.959Z,1.20
2023-01-03T01:11:52.625Z,3.00
2023-01-03T01:14:20.979Z,1.53
2023-01-03T01:16:49.924Z,2.30
2023-01-03T01:19:17.204Z,2.43
2023-01-03T01:21:48.238Z,2.67
2023-01-03T01:24:17.909Z,1.50
2023-01-03T01:26:45.161Z,4.40
2023-01-03T01:29:12.399Z,1.80
2023-01-03T01:31:43.313Z,1.83
2023-01-03T01:34:09.542Z,3.00
2023-01-03T01:36:37.007Z,2.30
2023-01-03T01:39:07.543Z,2.37
2023-01-03T01:41:55.346Z,2.23
2023-01-03T01:45:08.676Z,2.00
2023-01-03T01:47:42.182Z,1.90
2023-01-03T01:50:15.311Z,4.30
2023-01-03T01:52:50.812Z,1.63
2023-01-03T01:55:30.594Z,1.60
2023-01-03T01:58:07.288Z,1.43
2023-01-03T02:00:39.470Z,2.57
2023-01-03T02:03:10.533Z,1.90
2023-01-03T02:05:49.465Z,1.40
2023-01-03T02:08:20.588Z,1.60
2023-01-03T02:11:06.232Z,1.47
2023-01-03T02:13:55.513Z,1.50
2023-01-03T02:16:43.797Z,2.03
2023-01-03T02:19:32.782Z,1.63
2023-01-03T02:22:08.193Z,2.40
2023-01-03T02:25:06.098Z,2.37
2023-01-03T02:28:07.223Z,3.00
2023-01-03T02:30:40.103Z,2.93
2023-01-03T02:33:25.408Z,2.87
2023-01-03T02:36:15.566Z,2.47
2023-01-03T02:39:03.221Z,2.80
2023-01-03T02:41:46.865Z,2.90
2023-01-03T02:44:27.486Z,2.80
2023-01-03T02:47:04.750Z,2.90
2023-01-03T02:49:41.045Z,3.07
2023-01-03T02:52:14.530Z,5.40
2023-01-03T02:54:52.695Z,3.60
2023-01-03T02:57:43.396Z,3.47
2023-01-03T03:00:15.435Z,3.00
2023-01-03T03:02:51.104Z,2.87
2023-01-03T03:05:25.396Z,3.10
2023-01-03T03:07:55.631Z,2.70
2023-01-03T03:10:44.821Z,3.87
2023-01-03T03:13:36.956Z,4.53
2023-01-03T03:16:42.436Z,2.90
2023-01-03T03:19:37.091Z,2.70
2023-01-03T03:22:32.784Z,2.80
2023-01-03T03:25:10.406Z,3.00
2023-01-03T03:28:00.456Z,2.63
2023-01-03T03:30:36.764Z,2.50
2023-01-03T03:33:10.173Z,2.97
2023-01-03T03:36:03.835Z,2.40
2023-01-03T03:38:37.518Z,4.13
2023-01-03T03:41:39.693Z,2.10
2023-01-03T03:45:01.932Z,1.70
2023-01-03T03:47:45.219Z,1.60
2023-01-03T03:50:34.605Z,1.70
2023-01-03T03:53:07.801Z,1.87
2023-01-03T03:55:52.092Z,3.03
2023-01-03T03:58:28.918Z,3.20
2023-01-03T04:00:56.013Z,2.93
2023-01-03T04:03:23.021Z,2.00
2023-01-03T04:05:59.269Z,2.50
2023-01-03T04:08:25.421Z,2.20
2023-01-03T04:11:04.653Z,2.80
2023-01-03T04:13:37.048Z,3.93
2023-01-03T04:16:04.441Z,2.13
2023-01-03T04:18:30.647Z,2.83
2023-01-03T04:20:56.777Z,2.07
2023-01-03T04:23:27.127Z,2.40
2023-01-03T04:25:56.584Z,1.97
2023-01-03T04:28:26.046Z,3.63
2023-01-03T04:30:55.409Z,2.70
2023-01-03T04:33:24.999Z,2.40
2023-01-03T04:35:54.429Z,2.97
2023-01-03T04:38:23.926Z,3.33
2023-01-03T04:41:05.837Z,1.87
2023-01-03T04:43:50.207Z,2.80
2023-01-03T04:46:16.475Z,2.07
2023-01-03T04:48:47.064Z,3.10
2023-01-03T04:51:13.998Z,2.53
2023-01-03T04:53:40.226Z,2.60
2023-01-03T04:56:06.627Z,2.50
2023-01-03T04:58:40.702Z,2.33
2023-01-03T05:01:09.695Z,2.10
2023-01-03T05:03:37.176Z,2.50
2023-01-03T05:06:07.271Z,2.70
2023-01-03T05:08:38.056Z,2.73
2023-01-03T05:11:05.516Z,3.00
2023-01-03T05:13:32.338Z,4.40
2023-01-03T05:16:10.119Z,2.10
2023-01-03T05:18:41.484Z,2.10
2023-01-03T05:21:30.912Z,1.83
2023-01-03T05:24:19.863Z,2.00
2023-01-03T05:26:50.835Z,2.73
2023-01-03T05:29:19.711Z,2.20
2023-01-03T05:31:50.260Z,2.80
2023-01-03T05:34:20.242Z,3.77
2023-01-03T05:36:51.249Z,8.83
2023-01-03T05:39:26.038Z,3.83
2023-01-03T05:42:00.191Z,2.00
2023-01-03T05:44:32.391Z,5.53
2023-01-03T05:47:07.766Z,2.20
2023-01-03T05:49:37.736Z,2.20
2023-01-03T05:52:08.004Z,2.63
2023-01-03T05:54:38.139Z,2.70
2023-01-03T05:57:09.424Z,1.80
2023-01-03T05:59:39.741Z,3.77
2023-01-03T06:02:10.304Z,3.40
2023-01-03T06:04:45.555Z,2.40
2023-01-03T06:07:15.883Z,2.50
2023-01-03T06:09:45.939Z,3.13
2023-01-03T06:12:16.495Z,2.80
2023-01-03T06:14:47.172Z,2.40
2023-01-03T06:17:35.672Z,4.60
2023-01-03T06:20:09.303Z,2.90
2023-01-03T06:22:40.086Z,2.70
2023-01-03T06:25:11.813Z,6.33
2023-01-03T06:27:47.117Z,3.30
2023-01-03T06:30:17.541Z,3.50
2023-01-03T06:32:47.589Z,3.13
2023-01-03T06:35:18.656Z,3.63
2023-01-03T06:37:48.736Z,3.47
2023-01-03T06:40:19.531Z,3.00
2023-01-03T06:42:50.491Z,4.33
2023-01-03T06:45:42.135Z,3.10
2023-01-03T06:48:27.567Z,3.73
2023-01-03T06:51:16.929Z,3.03
2023-01-03T06:53:48.222Z,3.77
2023-01-03T06:56:14.271Z,6.13
2023-01-03T06:58:44.818Z,6.00
2023-01-03T07:01:15.037Z,2.60
2023-01-03T07:03:45.354Z,2.80
2023-01-03T07:06:11.440Z,2.87
2023-01-03T07:08:47.915Z,7.00
2023-01-03T07:11:18.203Z,2.43
2023-01-03T07:14:00.233Z,5.60
2023-01-03T07:16:40.589Z,2.70
2023-01-03T07:19:13.480Z,3.63
2023-01-03T07:21:47.763Z,2.63
2023-01-03T07:24:18.480Z,4.60
2023-01-03T07:26:48.430Z,3.17
2023-01-03T07:29:18.674Z,3.83
2023-01-03T07:31:49.572Z,6.13
2023-01-03T07:34:20.086Z,3.00
2023-01-03T07:36:50.091Z,4.90
2023-01-03T07:39:24.043Z,4.13
2023-01-03T07:42:12.506Z,3.53
2023-01-03T07:44:42.785Z,3.00
2023-01-03T07:47:12.763Z,3.93
2023-01-03T07:49:43.235Z,2.93
2023-01-03T07:52:13.277Z,3.87
2023-01-03T07:54:47.882Z,4.80
2023-01-03T07:57:17.262Z,8.10
2023-01-03T07:59:47.259Z,12.77
2023-01-03T08:02:18.596Z,17.77
2023-01-03T08:04:47.055Z,16.20
2023-01-03T08:07:17.618Z,44.30
2023-01-03T08:10:06.301Z,34.30
2023-01-03T08:12:55.801Z,23.40
2023-01-03T08:15:21.844Z,21.20
2023-01-03T08:17:47.928Z,16.97
2023-01-03T08:20:17.917Z,14.00
2023-01-03T08:22:44.790Z,9.50
2023-01-03T08:25:11.016Z,8.20
2023-01-03T08:27:37.074Z,6.10
2023-01-03T08:30:07.850Z,5.77
2023-01-03T08:32:34.174Z,4.70
2023-01-03T08:35:00.607Z,9.77
2023-01-03T08:37:27.469Z,8.00
2023-01-03T08:40:04.184Z,10.20
2023-01-03T08:42:30.520Z,6.60
2023-01-03T08:45:01.028Z,5.30
2023-01-03T08:47:28.333Z,5.30
2023-01-03T08:49:58.563Z,8.33
2023-01-03T08:52:27.886Z,9.40
2023-01-03T08:54:57.878Z,6.33
2023-01-03T08:57:25.303Z,3.77
2023-01-03T08:59:55.796Z,3.83
2023-01-03T09:02:26.129Z,4.00
2023-01-03T09:04:55.928Z,5.63
2023-01-03T09:07:26.095Z,4.07
2023-01-03T09:09:59.180Z,3.50
2023-01-03T09:12:27.076Z,4.07
2023-01-03T09:14:56.325Z,2.67
2023-01-03T09:17:30.764Z,2.67
2023-01-03T09:20:00.392Z,3.03
2023-01-03T09:22:31.053Z,2.87
2023-01-03T09:24:59.545Z,2.67
2023-01-03T09:27:28.774Z,2.60
2023-01-03T09:29:58.416Z,2.90
2023-01-03T09:32:28.351Z,4.43
2023-01-03T09:35:02.823Z,4.83
2023-01-03T09:37:31.002Z,2.27
2023-01-03T09:40:00.678Z,2.03
2023-01-03T09:42:48.569Z,3.60
2023-01-03T09:45:17.481Z,2.00
2023-01-03T09:47:44.270Z,2.00
2023-01-03T09:50:50.707Z,2.40
2023-01-03T09:53:45.733Z,2.13
2023-01-03T09:56:34.337Z,2.10
2023-01-03T09:59:34.900Z,2.13
2023-01-03T10:03:02.496Z,2.80
2023-01-03T10:05:50.646Z,1.87
2023-01-03T10:08:32.955Z,1.90
2023-01-03T10:11:07.302Z,1.70
2023-01-03T10:13:37.641Z,2.03
2023-01-03T10:16:10.475Z,3.83
2023-01-03T10:19:17.106Z,3.07
2023-01-03T10:21:59.254Z,5.73
2023-01-03T10:24:44.395Z,2.70
2023-01-03T10:27:21.371Z,2.23
2023-01-03T10:29:51.739Z,2.50
2023-01-03T10:32:41.193Z,2.30
2023-01-03T10:35:16.199Z,1.80
2023-01-03T10:37:52.982Z,1.73
2023-01-03T10:40:43.577Z,1.93
2023-01-03T10:43:29.167Z,2.17
2023-01-03T10:46:21.032Z,2.30
2023-01-03T10:49:25.806Z,2.63
2023-01-03T10:51:53.703Z,2.27
2023-01-03T10:54:29.293Z,2.80
2023-01-03T10:56:59.735Z,3.93
2023-01-03T10:59:31.369Z,1.80
2023-01-03T11:01:59.987Z,4.70
2023-01-03T11:04:30.938Z,1.47
2023-01-03T11:07:00.130Z,3.10
2023-01-03T11:09:33.574Z,3.00
2023-01-03T11:12:11.105Z,6.63
2023-01-03T11:14:37.203Z,1.67
2023-01-03T11:17:05.051Z,1.83
2023-01-03T11:19:34.605Z,1.73
2023-01-03T11:22:23.597Z,2.23
2023-01-03T11:25:07.307Z,2.60
2023-01-03T11:28:19.043Z,2.90
2023-01-03T11:31:07.742Z,2.20
2023-01-03T11:33:48.071Z,2.63
2023-01-03T11:36:37.792Z,7.03
2023-01-03T11:39:35.906Z,1.77
2023-01-03T11:42:39.025Z,2.23
2023-01-03T11:45:46.396Z,1.57
2023-01-03T11:49:06.256Z,2.20
2023-01-03T11:51:36.130Z,1.77
2023-01-03T11:54:11.377Z,7.03
2023-01-03T11:56:46.240Z,1.67
2023-01-03T11:59:31.590Z,2.33
2023-01-03T12:02:25.497Z,8.63
2023-01-03T12:05:44.429Z,1.80
2023-01-03T12:08:17.845Z,1.77
2023-01-03T12:11:02.375Z,1.60
2023-01-03T12:14:11.633Z,1.90
2023-01-03T12:16:50.899Z,1.40
2023-01-03T12:19:42.664Z,2.23
2023-01-03T12:22:28.941Z,1.97
2023-01-03T12:25:05.468Z,9.60
2023-01-03T12:27:35.455Z,2.50
2023-01-03T12:30:35.919Z,1.80
2023-01-03T12:33:38.299Z,3.53
2023-01-03T12:36:28.233Z,2.13
2023-01-03T12:39:03.729Z,1.73
2023-01-03T12:41:42.717Z,2.03
2023-01-03T12:44:22.241Z,2.53
2023-01-03T12:46:51.486Z,2.83
2023-01-03T12:49:23.765Z,4.27
2023-01-03T12:51:58.662Z,3.83
2023-01-03T12:54:38.078Z,3.23
2023-01-03T12:57:17.701Z,1.73
2023-01-03T13:00:04.301Z,4.80
2023-01-03T13:02:52.686Z,6.40
2023-01-03T13:05:28.619Z,5.17
2023-01-03T13:08:11.204Z,2.03
2023-01-03T13:10:45.319Z,1.90
2023-01-03T13:13:17.692Z,1.80
2023-01-03T13:15:48.330Z,1.40
2023-01-03T13:18:22.137Z,3.30
2023-01-03T13:20:53.409Z,1.70
2023-01-03T13:23:31.844Z,1.90
2023-01-03T13:26:06.619Z,1.80
2023-01-03T13:28:38.089Z,3.07
2023-01-03T13:31:16.902Z,1.77
2023-01-03T13:33:53.206Z,3.20
2023-01-03T13:36:19.730Z,2.60
2023-01-03T13:38:46.633Z,3.83
2023-01-03T13:41:35.943Z,1.90
2023-01-03T13:44:18.893Z,2.10
2023-01-03T13:46:45.772Z,2.17
2023-01-03T13:49:18.131Z,3.10
2023-01-03T13:51:47.811Z,2.00
2023-01-03T13:54:16.823Z,2.80
2023-01-03T13:56:53.680Z,3.23
2023-01-03T13:59:50.593Z,7.20
2023-01-03T14:02:52.002Z,4.70
2023-01-03T14:05:45.701Z,4.70
2023-01-03T14:08:33.383Z,1.50
2023-01-03T14:11:22.105Z,1.97
2023-01-03T14:13:49.513Z,2.97
2023-01-03T14:16:24.222Z,3.53
2023-01-03T14:19:03.807Z,2.23
2023-01-03T14:21:41.028Z,2.10
2023-01-03T14:24:15.838Z,4.50
2023-01-03T14:26:46.069Z,2.70
2023-01-03T14:29:19.873Z,4.10
2023-01-03T14:31:49.694Z,5.40
2023-01-03T14:34:39.954Z,3.53
2023-01-03T14:37:12.799Z,3.33
2023-01-03T14:40:17.159Z,2.37
2023-01-03T14:42:47.159Z,7.80
2023-01-03T14:45:18.944Z,1.80
2023-01-03T14:47:51.674Z,3.07
2023-01-03T14:50:26.017Z,1.70
2023-01-03T14:52:58.791Z,2.83
2023-01-03T14:55:31.085Z,1.87
2023-01-03T14:58:04.307Z,1.80
2023-01-03T15:00:38.961Z,2.00
2023-01-03T15:03:12.043Z,2.73
2023-01-03T15:05:42.745Z,1.50
2023-01-03T15:08:31.669Z,1.60
2023-01-03T15:11:03.394Z,1.73
2023-01-03T15:13:33.435Z,2.43
2023-01-03T15:16:05.928Z,4.30
2023-01-03T15:18:34.783Z,3.60
2023-01-03T15:21:01.559Z,3.40
2023-01-03T15:23:37.672Z,2.80
2023-01-03T15:26:20.057Z,1.93
2023-01-03T15:28:54.016Z,6.20
2023-01-03T15:31:26.293Z,2.33
2023-01-03T15:34:11.963Z,7.10
2023-01-03T15:36:45.690Z,3.33
2023-01-03T15:39:20.517Z,4.23
2023-01-03T15:42:43.484Z,3.10
2023-01-03T15:45:10.349Z,4.23
2023-01-03T15:47:42.121Z,5.90
2023-01-03T15:50:18.071Z,4.10
2023-01-03T15:52:49.120Z,4.83
2023-01-03T15:55:19.615Z,4.60
2023-01-03T15:57:53.343Z,5.00
2023-01-03T16:00:25.378Z,6.60
2023-01-03T16:02:55.559Z,3.97
2023-01-03T16:05:26.740Z,5.80
2023-01-03T16:07:57.255Z,5.53
2023-01-03T16:10:26.988Z,5.13
2023-01-03T16:12:56.219Z,5.07
2023-01-03T16:15:29.359Z,4.73
2023-01-03T16:17:59.339Z,8.40
2023-01-03T16:20:29.123Z,5.83
2023-01-03T16:23:01.833Z,6.27
2023-01-03T16:25:28.407Z,5.10
2023-01-03T16:27:58.044Z,7.43
2023-01-03T16:30:28.413Z,5.70
2023-01-03T16:33:01.635Z,4.93
2023-01-03T16:35:31.719Z,5.50
2023-01-03T16:38:01.423Z,6.63
2023-01-03T16:40:31.846Z,5.67
2023-01-03T16:43:01.366Z,5.90
2023-01-03T16:45:31.060Z,7.20
2023-01-03T16:48:00.230Z,5.50
2023-01-03T16:50:33.901Z,6.23
2023-01-03T16:53:00.096Z,5.53
2023-01-03T16:55:36.063Z,5.83
2023-01-03T16:58:02.269Z,6.70
2023-01-03T17:00:36.170Z,7.00
2023-01-03T17:03:04.900Z,5.60
2023-01-03T17:05:36.597Z,7.40
2023-01-03T17:08:17.209Z,7.57
2023-01-03T17:10:46.035Z,9.70
2023-01-03T17:13:26.582Z,6.50
2023-01-03T17:15:54.225Z,7.93
2023-01-03T17:18:32.375Z,5.90
2023-01-03T17:21:01.168Z,5.70
2023-01-03T17:23:28.432Z,7.77
2023-01-03T17:26:01.183Z,8.40
2023-01-03T17:28:31.728Z,4.67
2023-01-03T17:30:57.820Z,5.43
2023-01-03T17:33:30.216Z,5.60
2023-01-03T17:36:04.283Z,14.43
2023-01-03T17:38:32.562Z,4.70
2023-01-03T17:40:58.725Z,4.97
2023-01-03T17:43:24.932Z,8.37
2023-01-03T17:46:20.673Z,5.87
2023-01-03T17:49:07.870Z,5.20
2023-01-03T17:51:38.102Z,5.80
2023-01-03T17:54:08.891Z,5.17
2023-01-03T17:56:44.036Z,5.90
2023-01-03T17:59:14.453Z,5.90
2023-01-03T18:01:44.584Z,5.23
2023-01-03T18:04:15.453Z,10.87
2023-01-03T18:06:53.679Z,6.20
2023-01-03T18:09:25.681Z,9.87
2023-01-03T18:11:56.088Z,9.40
2023-01-03T18:14:26.585Z,7.47
2023-01-03T18:16:56.833Z,7.40
2023-01-03T18:19:35.983Z,9.30
2023-01-03T18:22:05.888Z,7.03
2023-01-03T18:24:36.503Z,6.57
2023-01-03T18:27:08.822Z,5.63
2023-01-03T18:29:44.707Z,10.23
2023-01-03T18:32:27.119Z,6.20
2023-01-03T18:34:58.288Z,6.50
2023-01-03T18:37:33.900Z,6.10
2023-01-03T18:40:07.457Z,6.67
2023-01-03T18:42:56.375Z,10.53
2023-01-03T18:45:23.481Z,7.33
2023-01-03T18:47:49.537Z,6.30
2023-01-03T18:50:19.281Z,6.63
2023-01-03T18:52:54.709Z,6.40
2023-01-03T18:55:25.635Z,7.10
2023-01-03T18:57:52.268Z,10.10
2023-01-03T19:00:23.839Z,10.13
2023-01-03T19:02:54.478Z,7.73
2023-01-03T19:05:20.780Z,9.23
2023-01-03T19:07:49.202Z,6.80
2023-01-03T19:10:24.255Z,7.23
2023-01-03T19:12:55.641Z,10.13
2023-01-03T19:15:24.794Z,8.50
2023-01-03T19:17:51.605Z,7.70
2023-01-03T19:20:27.052Z,9.63
2023-01-03T19:22:54.347Z,7.47
2023-01-03T19:25:26.100Z,7.90
2023-01-03T19:27:53.760Z,7.93
2023-01-03T19:30:45.803Z,6.40
2023-01-03T19:33:13.742Z,9.50
2023-01-03T19:35:48.406Z,7.90
2023-01-03T19:38:18.517Z,8.90
2023-01-03T19:40:47.901Z,7.30
2023-01-03T19:43:21.180Z,8.20
2023-01-03T19:45:51.414Z,7.43
2023-01-03T19:48:23.784Z,7.77
2023-01-03T19:50:50.342Z,9.43
2023-01-03T19:53:25.138Z,8.07
2023-01-03T19:55:55.518Z,7.20
2023-01-03T19:58:33.710Z,6.93
2023-01-03T20:01:12.433Z,9.40
2023-01-03T20:03:43.398Z,10.10
2023-01-03T20:06:17.079Z,7.50
2023-01-03T20:08:49.020Z,7.37
2023-01-03T20:11:21.234Z,8.17
2023-01-03T20:13:52.045Z,6.30
2023-01-03T20:16:29.008Z,11.20
2023-01-03T20:18:59.200Z,10.57
2023-01-03T20:21:31.339Z,7.30
2023-01-03T20:24:02.677Z,7.67
2023-01-03T20:26:34.083Z,6.17
2023-01-03T20:29:04.747Z,7.50
2023-01-03T20:31:35.288Z,6.43
2023-01-03T20:34:05.934Z,12.17
2023-01-03T20:36:40.271Z,9.90
2023-01-03T20:39:22.188Z,8.37
2023-01-03T20:41:55.481Z,9.03
2023-01-03T20:44:28.726Z,9.40
2023-01-03T20:46:59.833Z,7.10
2023-01-03T20:49:30.127Z,6.10
2023-01-03T20:52:00.588Z,7.33
2023-01-03T20:54:31.031Z,7.93
2023-01-03T20:57:14.493Z,6.50
2023-01-03T20:59:44.646Z,6.67
2023-01-03T21:02:15.129Z,10.20
2023-01-03T21:04:52.455Z,7.27
2023-01-03T21:07:49.623Z,6.83
2023-01-03T21:10:27.423Z,7.50
2023-01-03T21:12:57.536Z,6.50
2023-01-03T21:15:23.803Z,7.00
2023-01-03T21:17:51.244Z,8.03
2023-01-03T21:20:24.844Z,16.27
2023-01-03T21:22:55.532Z,8.70
2023-01-03T21:25:27.882Z,13.57
2023-01-03T21:27:58.797Z,7.13
2023-01-03T21:30:31.021Z,6.70
2023-01-03T21:32:58.857Z,10.13
2023-01-03T21:35:25.132Z,6.50
2023-01-03T21:37:55.395Z,10.80
2023-01-03T21:40:27.420Z,9.47
2023-01-03T21:43:03.737Z,6.67
2023-01-03T21:45:38.787Z,7.70
2023-01-03T21:48:11.853Z,7.70
2023-01-03T21:50:45.655Z,6.87
2023-01-03T21:53:21.170Z,7.33
2023-01-03T21:55:51.841Z,9.67
2023-01-03T21:58:23.337Z,6.33
2023-01-03T22:00:49.550Z,7.50
2023-01-03T22:03:37.991Z,6.40
2023-01-03T22:06:12.317Z,7.07
2023-01-03T22:08:42.296Z,10.17
2023-01-03T22:11:12.964Z,5.10
2023-01-03T22:13:43.011Z,7.03
2023-01-03T22:16:13.300Z,11.37
2023-01-03T22:18:44.435Z,6.07
2023-01-03T22:21:15.041Z,5.93
2023-01-03T22:23:45.361Z,5.57
2023-01-03T22:26:18.850Z,5.57
2023-01-03T22:28:48.792Z,5.80
2023-01-03T22:31:22.112Z,10.70
2023-01-03T22:33:58.259Z,6.30
2023-01-03T22:36:28.365Z,5.63
2023-01-03T22:38:58.299Z,9.23
2023-01-03T22:41:29.418Z,8.10
2023-01-03T22:43:59.877Z,6.47
2023-01-03T22:46:31.145Z,5.73
2023-01-03T22:49:02.148Z,5.60
2023-01-03T22:51:36.733Z,7.10
2023-01-03T22:54:06.432Z,8.87
2023-01-03T22:56:36.963Z,5.37
2023-01-03T22:59:07.365Z,7.60
2023-01-03T23:01:38.058Z,9.70
2023-01-03T23:04:08.528Z,5.40
2023-01-03T23:06:39.297Z,6.13
2023-01-03T23:09:13.121Z,7.97
2023-01-03T23:12:01.980Z,8.77
2023-01-03T23:14:28.283Z,6.03
2023-01-03T23:16:55.074Z,8.60
2023-01-03T23:19:25.516Z,5.83
2023-01-03T23:21:53.369Z,7.77
2023-01-03T23:24:24.360Z,10.30
2023-01-03T23:26:53.562Z,6.17
2023-01-03T23:29:23.085Z,10.30
2023-01-03T23:31:52.887Z,5.10
2023-01-03T23:34:26.398Z,8.67
2023-01-03T23:36:56.403Z,7.43
2023-01-03T23:39:25.855Z,9.10
2023-01-03T23:41:55.733Z,5.17
2023-01-03T23:44:25.881Z,10.90
2023-01-03T23:46:55.034Z,5.13
2023-01-03T23:49:24.631Z,6.53
2023-01-03T23:51:54.407Z,5.43
2023-01-03T23:54:23.886Z,4.93
2023-01-03T23:56:53.679Z,5.47
2023-01-03T23:59:23.271Z,7.00
